createdAt,value
2018-06-24T00:00:19.471Z,24
2018-06-24T00:01:09.303Z,23.9
2018-06-24T00:01:59.311Z,24
2018-06-24T00:02:49.139Z,24
2018-06-24T00:03:39.723Z,24
2018-06-24T00:04:29.767Z,23.9
2018-06-24T00:05:19.306Z,23.9
2018-06-24T00:06:09.944Z,23.9
2018-06-24T00:07:00.002Z,24
2018-06-24T00:07:49.543Z,24
2018-06-24T00:08:40.097Z,24
2018-06-24T00:09:29.584Z,24
2018-06-24T00:10:19.910Z,24
2018-06-24T00:11:10.275Z,24
2018-06-24T00:11:59.772Z,24
2018-06-24T00:12:50.400Z,24
2018-06-24T00:13:40.462Z,24
2018-06-24T00:14:29.736Z,24
2018-06-24T00:15:20.327Z,23.9
2018-06-24T00:16:10.100Z,24
2018-06-24T00:16:59.873Z,24
2018-06-24T00:17:50.510Z,24
2018-06-24T00:18:40.021Z,23.9
2018-06-24T00:19:30.080Z,24
2018-06-24T00:20:20.704Z,23.9
2018-06-24T00:21:10.762Z,23.9
2018-06-24T00:22:00.802Z,23.9
2018-06-24T00:22:49.751Z,23.9
2018-06-24T00:23:40.994Z,24
2018-06-24T00:24:30.725Z,24
2018-06-24T00:25:21.137Z,23.9
2018-06-24T00:26:10.865Z,24
2018-06-24T00:27:01.208Z,24
2018-06-24T00:27:51.255Z,23.9
2018-06-24T00:28:41.063Z,23.9
2018-06-24T00:29:31.724Z,23.9
2018-06-24T00:30:21.454Z,24
2018-06-24T00:31:11.347Z,23.9
2018-06-24T00:32:00.867Z,23.9
2018-06-24T00:32:50.611Z,23.9
2018-06-24T00:33:41.227Z,24
2018-06-24T00:34:31.526Z,23.9
2018-06-24T00:35:21.344Z,23.9
2018-06-24T00:36:11.972Z,23.9
2018-06-24T00:37:01.958Z,23.9
2018-06-24T00:37:52.047Z,23.9
2018-06-24T00:38:42.055Z,23.9
2018-06-24T00:39:32.128Z,23.9
2018-06-24T00:40:22.228Z,23.9
2018-06-24T00:41:12.261Z,24
2018-06-24T00:42:02.313Z,23.9
2018-06-24T00:42:52.385Z,23.9
2018-06-24T00:43:42.183Z,23.9
2018-06-24T00:44:32.239Z,23.9
2018-06-24T00:45:22.557Z,23.9
2018-06-24T00:46:12.965Z,23.9
2018-06-24T00:47:02.981Z,23.9
2018-06-24T00:47:53.049Z,23.9
2018-06-24T00:48:43.070Z,23.9
2018-06-24T00:49:32.883Z,23.9
2018-06-24T00:50:22.675Z,23.9
2018-06-24T00:51:12.978Z,23.9
2018-06-24T00:52:02.792Z,23.9
2018-06-24T00:52:53.409Z,23.9
2018-06-24T00:53:43.539Z,23.9
2018-06-24T00:54:32.718Z,23.9
2018-06-24T00:55:23.300Z,23.9
2018-06-24T00:56:13.435Z,23.9
2018-06-24T00:57:03.433Z,23.9
2018-06-24T00:57:53.544Z,23.9
2018-06-24T00:58:43.289Z,23.9
2018-06-24T00:59:33.597Z,23.9
2018-06-24T01:00:23.720Z,23.9
2018-06-24T01:01:14.035Z,23.9
2018-06-24T01:02:03.847Z,23.9
2018-06-24T01:02:53.621Z,23.9
2018-06-24T01:03:43.739Z,23.9
2018-06-24T01:04:33.494Z,23.9
2018-06-24T01:05:23.891Z,23.9
2018-06-24T01:06:13.671Z,23.9
2018-06-24T01:07:03.371Z,23.9
2018-06-24T01:07:54.576Z,23.9
2018-06-24T01:08:44.313Z,23.9
2018-06-24T01:09:34.110Z,23.9
2018-06-24T01:10:23.906Z,23.9
2018-06-24T01:11:14.290Z,23.9
2018-06-24T01:12:03.747Z,23.9
2018-06-24T01:12:54.671Z,23.9
2018-06-24T01:13:44.404Z,23.9
2018-06-24T01:14:34.750Z,23.9
2018-06-24T01:15:24.841Z,23.9
2018-06-24T01:16:14.337Z,23.9
2018-06-24T01:17:04.422Z,23.9
2018-06-24T01:17:55.316Z,23.9
2018-06-24T01:18:45.349Z,23.9
2018-06-24T01:19:35.208Z,23.9
2018-06-24T01:20:25.257Z,23.9
2018-06-24T01:21:15.257Z,23.9
2018-06-24T01:22:05.369Z,23.9
2018-06-24T01:22:55.390Z,23.9
2018-06-24T01:23:45.703Z,23.9
2018-06-24T01:24:35.786Z,23.9
2018-06-24T01:25:25.836Z,23.9
2018-06-24T01:26:15.351Z,23.9
2018-06-24T01:27:05.657Z,23.9
2018-06-24T01:27:55.795Z,23.9
2018-06-24T01:28:44.989Z,23.9
2018-06-24T01:29:35.901Z,23.9
2018-06-24T01:30:25.380Z,23.9
2018-06-24T01:31:15.204Z,23.9
2018-06-24T01:32:05.525Z,23.9
2018-06-24T01:32:56.180Z,23.9
2018-06-24T01:33:46.180Z,23.9
2018-06-24T01:34:36.536Z,23.9
2018-06-24T01:35:25.491Z,23.9
2018-06-24T01:36:16.100Z,23.9
2018-06-24T01:37:05.966Z,23.9
2018-06-24T01:37:56.532Z,23.9
2018-06-24T01:38:46.833Z,23.9
2018-06-24T01:39:36.373Z,23.9
2018-06-24T01:40:27.006Z,23.9
2018-06-24T01:41:17.072Z,23.9
2018-06-24T01:42:06.806Z,23.9
2018-06-24T01:42:57.134Z,23.9
2018-06-24T01:43:47.268Z,23.9
2018-06-24T01:44:37.034Z,23.9
2018-06-24T01:45:27.070Z,23.9
2018-06-24T01:46:17.402Z,23.9
2018-06-24T01:47:07.208Z,23.9
2018-06-24T01:47:57.505Z,23.9
2018-06-24T01:48:47.592Z,23.9
2018-06-24T01:49:37.160Z,23.9
2018-06-24T01:50:27.411Z,23.9
2018-06-24T01:51:17.526Z,23.9
2018-06-24T01:52:07.308Z,23.9
2018-06-24T01:52:56.772Z,23.9
2018-06-24T01:53:46.615Z,23.9
2018-06-24T01:54:37.226Z,23.9
2018-06-24T01:55:27.580Z,23.9
2018-06-24T01:56:18.180Z,23.9
2018-06-24T01:57:07.122Z,23.9
2018-06-24T01:57:57.737Z,23.9
2018-06-24T01:58:48.056Z,23.9
2018-06-24T01:59:37.594Z,23.9
2018-06-24T02:00:27.698Z,23.9
2018-06-24T02:01:17.942Z,23.9
2018-06-24T02:02:08.028Z,23.9
2018-06-24T02:02:58.703Z,23.9
2018-06-24T02:03:48.144Z,23.9
2018-06-24T02:04:37.973Z,23.9
2018-06-24T02:05:27.982Z,23.9
2018-06-24T02:06:18.642Z,23.9
2018-06-24T02:07:08.995Z,23.9
2018-06-24T02:07:57.908Z,23.9
2018-06-24T02:08:49.088Z,23.9
2018-06-24T02:09:38.573Z,23.9
2018-06-24T02:10:28.376Z,23.9
2018-06-24T02:11:18.437Z,23.9
2018-06-24T02:12:08.813Z,23.9
2018-06-24T02:12:58.911Z,23.9
2018-06-24T02:13:49.515Z,23.9
2018-06-24T02:14:39.547Z,23.9
2018-06-24T02:15:29.601Z,23.9
2018-06-24T02:16:19.679Z,23.9
2018-06-24T02:17:09.445Z,23.9
2018-06-24T02:17:59.738Z,23.9
2018-06-24T02:18:49.745Z,23.9
2018-06-24T02:19:39.624Z,23.9
2018-06-24T02:20:29.946Z,23.9
2018-06-24T02:21:19.483Z,23.9
2018-06-24T02:22:10.097Z,23.9
2018-06-24T02:22:59.328Z,23.9
2018-06-24T02:23:50.212Z,23.9
2018-06-24T02:24:39.735Z,23.9
2018-06-24T02:25:29.879Z,23.9
2018-06-24T02:26:20.419Z,23.9
2018-06-24T02:27:09.895Z,23.9
2018-06-24T02:27:59.955Z,23.9
2018-06-24T02:28:50.566Z,23.9
2018-06-24T02:29:40.116Z,23.9
2018-06-24T02:30:30.458Z,23.9
2018-06-24T02:31:20.496Z,23.9
2018-06-24T02:32:10.051Z,23.9
2018-06-24T02:33:00.324Z,23.9
2018-06-24T02:33:50.701Z,23.9
2018-06-24T02:34:40.203Z,23.9
2018-06-24T02:35:30.852Z,23.9
2018-06-24T02:36:20.633Z,23.9
2018-06-24T02:37:11.174Z,23.9
2018-06-24T02:38:00.150Z,23.9
2018-06-24T02:38:50.515Z,23.9
2018-06-24T02:39:41.104Z,23.9
2018-06-24T02:40:30.862Z,23.9
2018-06-24T02:41:20.408Z,23.9
2018-06-24T02:42:11.579Z,23.9
2018-06-24T02:43:01.647Z,23.9
2018-06-24T02:43:51.434Z,23.9
2018-06-24T02:44:41.749Z,23.8
2018-06-24T02:45:31.570Z,23.9
2018-06-24T02:46:21.914Z,23.9
2018-06-24T02:47:11.397Z,23.9
2018-06-24T02:48:01.494Z,23.9
2018-06-24T02:48:52.089Z,23.9
2018-06-24T02:49:42.171Z,23.9
2018-06-24T02:50:32.304Z,23.9
2018-06-24T02:51:21.167Z,23.9
2018-06-24T02:52:12.059Z,23.9
2018-06-24T02:53:01.603Z,23.8
2018-06-24T02:53:52.569Z,23.8
2018-06-24T02:54:41.724Z,23.9
2018-06-24T02:55:32.383Z,23.9
2018-06-24T02:56:22.661Z,23.9
2018-06-24T02:57:12.700Z,23.9
2018-06-24T02:58:02.197Z,23.9
2018-06-24T02:58:52.832Z,23.8
2018-06-24T02:59:42.387Z,23.9
2018-06-24T03:00:32.666Z,23.8
2018-06-24T03:01:22.186Z,23.9
2018-06-24T03:02:13.116Z,23.8
2018-06-24T03:03:02.341Z,23.9
2018-06-24T03:03:52.929Z,23.9
2018-06-24T03:04:42.408Z,23.8
2018-06-24T03:05:32.791Z,23.8
2018-06-24T03:06:22.620Z,23.8
2018-06-24T03:07:12.635Z,23.9
2018-06-24T03:08:03.588Z,23.9
2018-06-24T03:08:52.466Z,23.8
2018-06-24T03:09:43.101Z,23.9
2018-06-24T03:10:33.561Z,23.8
2018-06-24T03:11:23.226Z,23.9
2018-06-24T03:12:13.300Z,23.8
2018-06-24T03:13:03.651Z,23.8
2018-06-24T03:13:53.115Z,23.8
2018-06-24T03:14:43.510Z,23.8
2018-06-24T03:15:33.834Z,23.9
2018-06-24T03:16:23.598Z,23.9
2018-06-24T03:17:13.677Z,23.8
2018-06-24T03:18:03.723Z,23.8
2018-06-24T03:18:54.269Z,23.8
2018-06-24T03:19:44.427Z,23.8
2018-06-24T03:20:34.165Z,23.8
2018-06-24T03:21:23.715Z,23.8
2018-06-24T03:22:14.568Z,23.8
2018-06-24T03:23:03.570Z,23.8
2018-06-24T03:23:53.560Z,23.8
2018-06-24T03:24:43.927Z,23.9
2018-06-24T03:25:34.697Z,23.8
2018-06-24T03:26:24.018Z,23.8
2018-06-24T03:27:14.920Z,23.8
2018-06-24T03:28:04.726Z,23.8
2018-06-24T03:28:55.016Z,23.8
2018-06-24T03:29:43.987Z,23.8
2018-06-24T03:30:35.373Z,23.8
2018-06-24T03:31:24.689Z,23.8
2018-06-24T03:32:14.781Z,23.8
2018-06-24T03:33:05.409Z,23.8
2018-06-24T03:33:55.130Z,23.8
2018-06-24T03:34:45.466Z,23.8
2018-06-24T03:35:35.528Z,23.8
2018-06-24T03:36:25.416Z,23.8
2018-06-24T03:37:15.375Z,23.8
2018-06-24T03:38:05.729Z,23.9
2018-06-24T03:38:55.800Z,23.8
2018-06-24T03:39:45.848Z,23.8
2018-06-24T03:40:35.910Z,23.8
2018-06-24T03:41:25.994Z,23.8
2018-06-24T03:42:15.753Z,23.8
2018-06-24T03:43:06.129Z,23.8
2018-06-24T03:43:56.249Z,23.8
2018-06-24T03:44:45.648Z,23.8
2018-06-24T03:45:36.270Z,23.8
2018-06-24T03:46:25.795Z,23.8
2018-06-24T03:47:15.907Z,23.8
2018-06-24T03:48:06.499Z,23.8
2018-06-24T03:48:56.611Z,23.8
2018-06-24T03:49:46.120Z,23.8
2018-06-24T03:50:36.713Z,23.8
2018-06-24T03:51:26.183Z,23.8
2018-06-24T03:52:16.538Z,23.8
2018-06-24T03:53:06.636Z,23.8
2018-06-24T03:53:56.679Z,23.8
2018-06-24T03:54:46.432Z,23.8
2018-06-24T03:55:36.525Z,23.8
2018-06-24T03:56:26.577Z,23.8
2018-06-24T03:57:16.895Z,23.8
2018-06-24T03:58:07.581Z,23.8
2018-06-24T03:58:56.203Z,23.8
2018-06-24T03:59:47.340Z,23.8
2018-06-24T04:00:36.584Z,23.8
2018-06-24T04:01:26.930Z,23.8
2018-06-24T04:02:16.423Z,23.8
2018-06-24T04:03:07.335Z,23.8
2018-06-24T04:03:57.705Z,23.8
2018-06-24T04:04:48.219Z,23.8
2018-06-24T04:05:36.689Z,23.8
2018-06-24T04:06:26.779Z,23.8
2018-06-24T04:07:17.954Z,23.8
2018-06-24T04:08:08.055Z,23.8
2018-06-24T04:08:57.792Z,23.8
2018-06-24T04:09:48.138Z,23.8
2018-06-24T04:10:38.207Z,23.8
2018-06-24T04:11:28.280Z,23.8
2018-06-24T04:12:17.456Z,23.8
2018-06-24T04:13:07.525Z,23.8
2018-06-24T04:13:58.124Z,23.8
2018-06-24T04:14:47.644Z,23.8
2018-06-24T04:15:38.007Z,23.8
2018-06-24T04:16:28.091Z,23.8
2018-06-24T04:17:18.095Z,23.8
2018-06-24T04:18:07.939Z,23.8
2018-06-24T04:18:58.198Z,23.8
2018-06-24T04:19:48.594Z,23.8
2018-06-24T04:20:38.639Z,23.8
2018-06-24T04:21:28.976Z,23.8
2018-06-24T04:22:18.866Z,23.8
2018-06-24T04:23:08.288Z,23.8
2018-06-24T04:23:58.846Z,23.8
2018-06-24T04:24:48.670Z,23.8
2018-06-24T04:25:39.614Z,23.8
2018-06-24T04:26:28.287Z,23.8
2018-06-24T04:27:18.921Z,23.8
2018-06-24T04:28:09.021Z,23.8
2018-06-24T04:28:59.057Z,23.8
2018-06-24T04:29:49.111Z,23.8
2018-06-24T04:30:39.195Z,23.8
2018-06-24T04:31:28.974Z,23.8
2018-06-24T04:32:19.357Z,23.8
2018-06-24T04:33:08.841Z,23.8
2018-06-24T04:33:59.144Z,23.8
2018-06-24T04:34:49.444Z,23.8
2018-06-24T04:35:40.112Z,23.8
2018-06-24T04:36:29.536Z,23.8
2018-06-24T04:37:19.078Z,23.8
2018-06-24T04:38:10.204Z,23.8
2018-06-24T04:39:00.350Z,23.8
2018-06-24T04:39:50.415Z,23.8
2018-06-24T04:40:39.597Z,23.8
2018-06-24T04:41:30.192Z,23.8
2018-06-24T04:42:19.709Z,23.8
2018-06-24T04:43:09.768Z,23.8
2018-06-24T04:44:00.369Z,23.8
2018-06-24T04:44:50.722Z,23.8
2018-06-24T04:45:40.508Z,23.8
2018-06-24T04:46:30.846Z,23.8
2018-06-24T04:47:20.916Z,23.8
2018-06-24T04:48:10.754Z,23.8
2018-06-24T04:49:00.797Z,23.8
2018-06-24T04:49:51.126Z,23.8
2018-06-24T04:50:41.155Z,23.8
2018-06-24T04:51:30.718Z,23.8
2018-06-24T04:52:20.993Z,23.8
2018-06-24T04:53:11.371Z,23.8
2018-06-24T04:54:01.101Z,23.8
2018-06-24T04:54:50.641Z,23.8
2018-06-24T04:55:41.559Z,23.8
2018-06-24T04:56:31.609Z,23.8
2018-06-24T04:57:21.676Z,23.8
2018-06-24T04:58:10.871Z,23.8
2018-06-24T04:59:01.770Z,23.8
2018-06-24T04:59:51.299Z,23.8
2018-06-24T05:00:41.929Z,23.8
2018-06-24T05:01:30.867Z,23.8
2018-06-24T05:02:20.961Z,23.8
2018-06-24T05:03:11.523Z,23.8
2018-06-24T05:04:01.611Z,23.8
2018-06-24T05:04:52.237Z,23.8
2018-06-24T05:05:42.128Z,23.8
2018-06-24T05:06:32.983Z,23.8
2018-06-24T05:07:22.414Z,23.8
2018-06-24T05:08:12.190Z,23.8
2018-06-24T05:09:01.986Z,23.8
2018-06-24T05:09:51.496Z,23.8
2018-06-24T05:10:42.667Z,23.8
2018-06-24T05:11:32.451Z,23.8
2018-06-24T05:12:22.777Z,23.8
2018-06-24T05:13:12.589Z,23.8
2018-06-24T05:14:01.876Z,23.8
2018-06-24T05:14:53.022Z,23.8
2018-06-24T05:15:43.063Z,23.8
2018-06-24T05:16:32.540Z,23.8
2018-06-24T05:17:22.339Z,23.8
2018-06-24T05:18:12.404Z,23.8
2018-06-24T05:19:01.896Z,23.8
2018-06-24T05:19:52.768Z,23.8
2018-06-24T05:20:43.433Z,23.8
2018-06-24T05:21:33.511Z,23.8
2018-06-24T05:22:23.003Z,23.8
2018-06-24T05:23:13.048Z,23.8
2018-06-24T05:24:03.373Z,23.8
2018-06-24T05:24:53.704Z,23.8
2018-06-24T05:25:43.749Z,23.8
2018-06-24T05:26:33.620Z,23.8
2018-06-24T05:27:23.347Z,23.8
2018-06-24T05:28:13.725Z,23.8
2018-06-24T05:29:03.275Z,23.8
2018-06-24T05:29:53.360Z,23.8
2018-06-24T05:30:43.407Z,23.8
2018-06-24T05:31:32.925Z,23.8
2018-06-24T05:32:23.511Z,23.8
2018-06-24T05:33:13.861Z,23.8
2018-06-24T05:34:03.927Z,23.8
2018-06-24T05:34:53.163Z,23.8
2018-06-24T05:35:44.509Z,23.8
2018-06-24T05:36:34.576Z,23.8
2018-06-24T05:37:23.861Z,23.8
2018-06-24T05:38:14.722Z,23.8
2018-06-24T05:39:04.779Z,23.8
2018-06-24T05:39:54.400Z,23.8
2018-06-24T05:40:44.648Z,23.8
2018-06-24T05:41:34.392Z,23.8
2018-06-24T05:42:25.046Z,23.8
2018-06-24T05:43:15.415Z,23.8
2018-06-24T05:44:04.862Z,23.8
2018-06-24T05:44:54.701Z,23.8
2018-06-24T05:45:45.329Z,23.8
2018-06-24T05:46:34.840Z,23.8
2018-06-24T05:47:25.405Z,23.8
2018-06-24T05:48:15.478Z,23.8
2018-06-24T05:49:05.273Z,23.7
2018-06-24T05:49:54.785Z,26.3
2018-06-24T05:50:45.719Z,26.6
2018-06-24T05:51:35.445Z,28.6
2018-06-24T05:52:24.959Z,30.1
2018-06-24T05:53:15.028Z,30.6
2018-06-24T05:54:05.649Z,30.5
2018-06-24T05:54:55.698Z,29.6
2018-06-24T05:55:45.744Z,28.6
2018-06-24T05:56:36.084Z,28.1
2018-06-24T05:58:15.965Z,27.8
2018-06-24T05:59:05.714Z,27.7
2018-06-24T05:59:56.093Z,27.6
2018-06-24T06:00:46.393Z,27.6
2018-06-24T06:01:36.431Z,27.6
2018-06-24T06:02:26.564Z,27.5
2018-06-24T06:03:16.091Z,27.5
2018-06-24T06:04:06.711Z,27.4
2018-06-24T06:04:56.706Z,27.4
2018-06-24T06:05:46.522Z,27.3
2018-06-24T06:06:36.895Z,28.8
2018-06-24T06:07:26.673Z,29.6
2018-06-24T06:08:17.013Z,31.3
2018-06-24T06:09:07.070Z,32
2018-06-24T06:09:56.568Z,32.3
2018-06-24T06:10:47.015Z,32.2
2018-06-24T06:11:36.981Z,32.1
2018-06-24T06:12:27.029Z,32.1
2018-06-24T06:13:17.443Z,32.3
2018-06-24T06:14:07.187Z,32.5
2018-06-24T06:14:57.566Z,32.7
2018-06-24T06:15:47.269Z,32.8
2018-06-24T06:16:37.358Z,32.9
2018-06-24T06:17:27.638Z,33
2018-06-24T06:18:17.721Z,33.1
2018-06-24T06:19:07.473Z,33.2
2018-06-24T06:19:57.844Z,33.3
2018-06-24T06:20:47.672Z,33.5
2018-06-24T06:21:37.701Z,33.6
2018-06-24T06:22:28.033Z,33.7
2018-06-24T06:23:17.800Z,33.8
2018-06-24T06:24:08.273Z,33.9
2018-06-24T06:24:57.696Z,34
2018-06-24T06:25:48.288Z,34.1
2018-06-24T06:26:38.355Z,34.3
2018-06-24T06:27:28.142Z,34.3
2018-06-24T06:28:18.183Z,34.5
2018-06-24T06:29:07.992Z,34.6
2018-06-24T06:29:58.126Z,34.8
2018-06-24T06:30:48.373Z,34.8
2018-06-24T06:31:38.730Z,34.9
2018-06-24T06:32:28.238Z,35.1
2018-06-24T06:33:18.337Z,35.2
2018-06-24T06:34:08.091Z,35.3
2018-06-24T06:34:58.419Z,35.4
2018-06-24T06:35:48.479Z,35.5
2018-06-24T06:36:38.877Z,35.6
2018-06-24T06:37:28.926Z,35.8
2018-06-24T06:38:19.215Z,35.9
2018-06-24T06:39:08.235Z,36
2018-06-24T06:39:59.382Z,36.1
2018-06-24T06:40:49.197Z,36.2
2018-06-24T06:41:39.183Z,36.3
2018-06-24T06:42:28.997Z,36.4
2018-06-24T06:43:19.305Z,36.6
2018-06-24T06:44:09.386Z,36.6
2018-06-24T06:45:00.697Z,36.8
2018-06-24T06:45:51.526Z,36.9
2018-06-24T06:46:39.006Z,36.9
2018-06-24T06:47:29.675Z,37.1
2018-06-24T06:48:19.454Z,37.2
2018-06-24T06:49:10.060Z,37.3
2018-06-24T06:49:58.972Z,37.4
2018-06-24T06:50:50.202Z,37.5
2018-06-24T06:51:40.250Z,37.6
2018-06-24T06:52:29.778Z,37.7
2018-06-24T06:53:19.418Z,37.8
2018-06-24T06:54:10.168Z,37.9
2018-06-24T06:55:00.230Z,38.1
2018-06-24T06:55:49.469Z,38.1
2018-06-24T06:56:39.218Z,38.3
2018-06-24T06:57:29.437Z,38.4
2018-06-24T06:58:20.175Z,38.5
2018-06-24T06:59:10.257Z,38.6
2018-06-24T07:00:00.663Z,38.7
2018-06-24T07:00:50.946Z,38.8
2018-06-24T07:01:40.252Z,38.9
2018-06-24T07:02:31.048Z,39
2018-06-24T07:03:21.697Z,39.2
2018-06-24T07:04:11.167Z,39.3
2018-06-24T07:05:00.674Z,39.4
2018-06-24T07:05:51.712Z,39.4
2018-06-24T07:06:41.406Z,39.6
2018-06-24T07:07:31.472Z,39.7
2018-06-24T07:08:21.531Z,39.8
2018-06-24T07:09:10.989Z,39.9
2018-06-24T07:10:01.318Z,40
2018-06-24T07:10:51.422Z,40.1
2018-06-24T07:11:41.053Z,40.3
2018-06-24T07:12:31.309Z,40.4
2018-06-24T07:13:21.347Z,40.4
2018-06-24T07:14:11.383Z,40.6
2018-06-24T07:15:01.464Z,40.7
2018-06-24T07:15:51.569Z,40.8
2018-06-24T07:16:41.325Z,40.9
2018-06-24T07:17:31.946Z,41.1
2018-06-24T07:18:21.571Z,41.1
2018-06-24T07:19:11.638Z,41.3
2018-06-24T07:20:01.824Z,41.4
2018-06-24T07:20:52.239Z,41.5
2018-06-24T07:21:42.296Z,41.6
2018-06-24T07:22:32.104Z,41.8
2018-06-24T07:23:20.978Z,41.8
2018-06-24T07:24:11.682Z,41.9
2018-06-24T07:25:01.671Z,42.1
2018-06-24T07:25:52.828Z,42.2
2018-06-24T07:26:42.621Z,42.3
2018-06-24T07:27:32.656Z,42.4
2018-06-24T07:28:22.998Z,42.5
2018-06-24T07:29:12.233Z,42.6
2018-06-24T07:30:02.898Z,42.8
2018-06-24T07:30:53.227Z,42.9
2018-06-24T07:31:42.996Z,43
2018-06-24T07:32:33.051Z,43.1
2018-06-24T07:33:23.915Z,43.3
2018-06-24T07:34:12.917Z,43.4
2018-06-24T07:35:03.009Z,43.5
2018-06-24T07:35:53.623Z,43.6
2018-06-24T07:36:43.640Z,43.8
2018-06-24T07:37:33.472Z,43.8
2018-06-24T07:38:23.211Z,43.9
2018-06-24T07:39:14.531Z,44.1
2018-06-24T07:40:03.672Z,44.2
2018-06-24T07:40:53.441Z,44.3
2018-06-24T07:41:43.797Z,44.5
2018-06-24T07:42:34.060Z,44.6
2018-06-24T07:43:23.356Z,44.7
2018-06-24T07:44:13.906Z,44.8
2018-06-24T07:45:03.983Z,44.9
2018-06-24T07:45:54.036Z,45.1
2018-06-24T07:46:43.628Z,45.2
2018-06-24T07:47:34.209Z,45.3
2018-06-24T07:48:23.800Z,45.5
2018-06-24T07:49:14.045Z,45.6
2018-06-24T07:50:03.895Z,45.8
2018-06-24T07:50:54.171Z,45.8
2018-06-24T07:51:43.963Z,45.9
2018-06-24T07:52:34.861Z,45.9
2018-06-24T07:53:24.353Z,45.9
2018-06-24T07:54:14.954Z,45.8
2018-06-24T07:55:04.755Z,45.6
2018-06-24T07:55:55.058Z,45.7
2018-06-24T07:56:44.571Z,45.9
2018-06-24T07:57:35.321Z,46.1
2018-06-24T07:58:25.288Z,46.4
2018-06-24T07:59:15.358Z,46.6
2018-06-24T08:00:05.140Z,46.8
2018-06-24T08:00:55.486Z,46.9
2018-06-24T08:01:44.995Z,47.1
2018-06-24T08:02:34.775Z,47.3
2018-06-24T08:03:26.726Z,47.4
2018-06-24T08:04:15.225Z,47.4
2018-06-24T08:05:05.285Z,47.4
2018-06-24T08:05:55.826Z,47.3
2018-06-24T08:06:45.915Z,47.2
2018-06-24T08:07:35.705Z,47.1
2018-06-24T08:08:26.030Z,47.1
2018-06-24T08:09:14.997Z,47.2
2018-06-24T08:10:05.636Z,47.4
2018-06-24T08:10:55.967Z,47.6
2018-06-24T08:11:46.055Z,47.9
2018-06-24T08:12:36.349Z,48.1
2018-06-24T08:13:25.994Z,48.2
2018-06-24T08:14:15.919Z,48.3
2018-06-24T08:15:06.576Z,48.4
2018-06-24T08:15:55.747Z,48.6
2018-06-24T08:16:46.438Z,48.7
2018-06-24T08:17:36.179Z,48.8
2018-06-24T08:18:26.769Z,48.9
2018-06-24T08:19:16.321Z,49
2018-06-24T08:20:06.438Z,49.1
2018-06-24T08:20:56.707Z,49.3
2018-06-24T08:21:47.031Z,49.4
2018-06-24T08:22:36.845Z,49.4
2018-06-24T08:23:26.603Z,49.6
2018-06-24T08:24:16.982Z,49.7
2018-06-24T08:25:06.789Z,49.8
2018-06-24T08:25:56.799Z,49.9
2018-06-24T08:26:47.146Z,49.9
2018-06-24T08:27:36.486Z,50.1
2018-06-24T08:28:27.270Z,50.2
2018-06-24T08:29:16.305Z,50.3
2018-06-24T08:30:07.415Z,50.3
2018-06-24T08:30:57.774Z,50.4
2018-06-24T08:31:48.098Z,50.5
2018-06-24T08:32:37.615Z,50.6
2018-06-24T08:33:27.399Z,50.7
2018-06-24T08:34:17.727Z,50.8
2018-06-24T08:35:07.302Z,50.8
2018-06-24T08:35:57.603Z,50.9
2018-06-24T08:36:48.191Z,50.9
2018-06-24T08:37:37.211Z,50.9
2018-06-24T08:38:27.768Z,50.9
2018-06-24T08:39:18.134Z,51.1
2018-06-24T08:40:08.468Z,51.2
2018-06-24T08:40:57.216Z,51.3
2018-06-24T08:41:48.559Z,51.4
2018-06-24T08:42:38.645Z,51.5
2018-06-24T08:43:28.152Z,51.6
2018-06-24T08:44:18.747Z,51.7
2018-06-24T08:45:08.836Z,51.8
2018-06-24T08:45:57.847Z,51.8
2018-06-24T08:47:39.062Z,52
2018-06-24T08:48:28.008Z,52.1
2018-06-24T08:49:18.931Z,52.1
2018-06-24T08:50:08.742Z,52.3
2018-06-24T08:50:59.260Z,52.3
2018-06-24T08:52:38.836Z,52.4
2018-06-24T08:53:28.639Z,52.5
2018-06-24T08:54:19.674Z,52.6
2018-06-24T08:55:09.412Z,52.8
2018-06-24T08:55:58.567Z,52.8
2018-06-24T08:56:49.724Z,52.8
2018-06-24T08:57:38.942Z,52.9
2018-06-24T08:58:29.017Z,53
2018-06-24T08:59:19.666Z,53.1
2018-06-24T09:00:09.702Z,53.2
2018-06-24T09:01:00.052Z,53.3
2018-06-24T09:01:49.880Z,53.4
2018-06-24T09:02:39.632Z,53.4
2018-06-24T09:03:29.012Z,53.5
2018-06-24T09:04:19.731Z,53.6
2018-06-24T09:05:10.372Z,53.6
2018-06-24T09:06:00.170Z,53.7
2018-06-24T09:06:48.855Z,53.8
2018-06-24T09:07:39.842Z,53.9
2018-06-24T09:08:30.642Z,53.9
2018-06-24T09:09:20.655Z,53.9
2018-06-24T09:10:10.717Z,54
2018-06-24T09:11:00.822Z,54.1
2018-06-24T09:11:50.840Z,54.1
2018-06-24T09:12:40.677Z,54.2
2018-06-24T09:13:30.435Z,54.3
2018-06-24T09:14:20.352Z,54.4
